createdAt,value
2022-08-20T00:00:30.671Z,21.73
2022-08-20T00:02:54.713Z,21.60
2022-08-20T00:04:56.854Z,21.53
2022-08-20T00:07:01.826Z,21.51
2022-08-20T00:09:04.775Z,21.46
2022-08-20T00:11:20.248Z,21.41
2022-08-20T00:13:34.407Z,21.38
2022-08-20T00:15:41.743Z,21.37
2022-08-20T00:17:51.533Z,21.29
2022-08-20T00:19:55.578Z,21.44
2022-08-20T00:21:58.643Z,21.57
2022-08-20T00:24:03.922Z,21.41
2022-08-20T00:26:08.802Z,21.35
2022-08-20T00:28:14.781Z,21.37
2022-08-20T00:30:19.384Z,21.20
2022-08-20T00:32:22.025Z,21.11
2022-08-20T00:34:26.672Z,21.08
2022-08-20T00:36:32.959Z,21.06
2022-08-20T00:38:40.686Z,21.07
2022-08-20T00:40:56.365Z,20.98
2022-08-20T00:43:12.173Z,21.03
2022-08-20T00:45:31.556Z,21.12
2022-08-20T00:47:42.041Z,21.07
2022-08-20T00:49:54.594Z,21.05
2022-08-20T00:52:16.334Z,21.02
2022-08-20T00:54:29.482Z,20.94
2022-08-20T00:56:33.418Z,20.96
2022-08-20T00:58:38.810Z,20.95
2022-08-20T01:00:45.492Z,20.91
2022-08-20T01:02:48.810Z,20.90
2022-08-20T01:04:51.452Z,20.87
2022-08-20T01:06:54.879Z,20.77
2022-08-20T01:08:57.300Z,20.90
2022-08-20T01:10:59.818Z,20.75
2022-08-20T01:13:09.671Z,20.88
2022-08-20T01:15:16.691Z,20.83
2022-08-20T01:17:26.094Z,20.94
2022-08-20T01:19:38.616Z,20.91
2022-08-20T01:21:40.721Z,20.85
2022-08-20T01:23:49.489Z,20.91
2022-08-20T01:26:01.896Z,20.91
2022-08-20T01:28:05.268Z,20.82
2022-08-20T01:30:08.517Z,20.68
2022-08-20T01:33:10.730Z,20.72
2022-08-20T01:35:13.244Z,20.58
2022-08-20T01:37:22.632Z,20.64
2022-08-20T01:39:37.323Z,20.61
2022-08-20T01:42:09.328Z,20.68
2022-08-20T01:44:16.003Z,20.62
2022-08-20T01:46:20.944Z,20.68
2022-08-20T01:48:23.353Z,20.69
2022-08-20T01:50:29.279Z,20.67
2022-08-20T01:52:47.255Z,20.63
2022-08-20T01:54:49.560Z,20.43
2022-08-20T01:57:07.128Z,20.51
2022-08-20T01:59:09.093Z,20.31
2022-08-20T02:01:46.345Z,20.44
2022-08-20T02:03:49.748Z,20.42
2022-08-20T02:05:52.506Z,20.39
2022-08-20T02:07:54.852Z,20.33
2022-08-20T02:09:57.069Z,20.38
2022-08-20T02:12:00.984Z,20.39
2022-08-20T02:14:07.044Z,20.48
2022-08-20T02:16:09.313Z,20.52
2022-08-20T02:18:15.425Z,20.63
2022-08-20T02:20:26.864Z,20.51
2022-08-20T02:22:45.782Z,20.64
2022-08-20T02:24:53.375Z,20.61
2022-08-20T02:26:56.111Z,20.58
2022-08-20T02:28:58.305Z,20.59
2022-08-20T02:31:03.394Z,20.45
2022-08-20T02:33:12.132Z,20.47
2022-08-20T02:35:14.765Z,20.33
2022-08-20T02:37:16.954Z,20.29
2022-08-20T02:39:19.382Z,20.13
2022-08-20T02:41:21.536Z,20.26
2022-08-20T02:43:23.935Z,20.24
2022-08-20T02:45:26.704Z,20.25
2022-08-20T02:47:28.885Z,20.17
2022-08-20T02:49:31.022Z,20.21
2022-08-20T02:51:33.314Z,20.26
2022-08-20T02:53:38.684Z,20.29
2022-08-20T02:55:40.738Z,20.25
2022-08-20T02:57:44.230Z,20.29
2022-08-20T02:59:48.034Z,20.18
2022-08-20T03:02:00.099Z,20.20
2022-08-20T03:04:03.426Z,20.31
2022-08-20T03:06:07.775Z,20.17
2022-08-20T03:08:13.226Z,20.25
2022-08-20T03:10:16.311Z,20.22
2022-08-20T03:12:18.305Z,20.19
2022-08-20T03:14:20.344Z,20.20
2022-08-20T03:16:22.676Z,20.20
2022-08-20T03:18:34.216Z,20.23
2022-08-20T03:20:36.893Z,20.05
2022-08-20T03:22:39.255Z,20.10
2022-08-20T03:24:41.216Z,20.04
2022-08-20T03:26:43.558Z,20.08
2022-08-20T03:28:46.004Z,20.20
2022-08-20T03:30:50.111Z,20.33
2022-08-20T03:32:52.882Z,20.42
2022-08-20T03:34:55.151Z,20.55
2022-08-20T03:36:57.331Z,20.70
2022-08-20T03:39:03.864Z,20.75
2022-08-20T03:41:06.135Z,20.83
2022-08-20T03:43:09.695Z,21.02
2022-08-20T03:45:16.062Z,21.10
2022-08-20T03:47:22.134Z,21.08
2022-08-20T03:49:24.825Z,21.15
2022-08-20T03:51:28.950Z,21.19
2022-08-20T03:53:31.370Z,21.25
2022-08-20T03:55:34.056Z,21.25
2022-08-20T03:57:36.836Z,21.30
2022-08-20T03:59:39.113Z,21.24
2022-08-20T04:01:46.334Z,21.22
2022-08-20T04:03:53.293Z,21.30
2022-08-20T04:05:57.736Z,21.24
2022-08-20T04:08:03.379Z,21.21
2022-08-20T04:10:10.131Z,20.99
2022-08-20T04:12:12.470Z,20.85
2022-08-20T04:14:18.585Z,20.74
2022-08-20T04:16:21.811Z,20.49
2022-08-20T04:18:25.685Z,20.47
2022-08-20T04:20:28.018Z,20.37
2022-08-20T04:22:30.027Z,20.26
2022-08-20T04:24:32.835Z,20.34
2022-08-20T04:26:34.885Z,20.37
2022-08-20T04:28:37.018Z,20.55
2022-08-20T04:30:39.706Z,20.73
2022-08-20T04:32:46.208Z,20.84
2022-08-20T04:34:48.184Z,20.87
2022-08-20T04:36:50.384Z,21.06
2022-08-20T04:38:52.393Z,21.16
2022-08-20T04:40:54.861Z,21.10
2022-08-20T04:42:57.832Z,21.12
2022-08-20T04:44:59.941Z,21.31
2022-08-20T04:47:01.893Z,21.46
2022-08-20T04:49:06.015Z,21.50
2022-08-20T04:51:09.545Z,21.47
2022-08-20T04:53:14.924Z,21.43
2022-08-20T04:55:17.996Z,21.48
2022-08-20T04:57:20.065Z,21.45
2022-08-20T04:59:22.091Z,21.43
2022-08-20T05:01:25.958Z,21.52
2022-08-20T05:03:28.953Z,21.39
2022-08-20T05:05:31.096Z,21.33
2022-08-20T05:07:40.744Z,21.33
2022-08-20T05:09:44.337Z,21.34
2022-08-20T05:11:46.432Z,21.42
2022-08-20T05:13:48.855Z,21.51
2022-08-20T05:15:51.114Z,21.64
2022-08-20T05:17:59.627Z,21.68
2022-08-20T05:20:01.863Z,21.63
2022-08-20T05:22:04.814Z,21.80
2022-08-20T05:24:07.750Z,21.89
2022-08-20T05:26:13.529Z,21.92
2022-08-20T05:28:23.841Z,21.99
2022-08-20T05:30:27.951Z,21.98
2022-08-20T05:32:30.184Z,22.07
2022-08-20T05:34:32.310Z,22.06
2022-08-20T05:36:34.319Z,22.09
2022-08-20T05:38:37.308Z,22.13
2022-08-20T05:40:41.966Z,22.22
2022-08-20T05:42:44.050Z,22.18
2022-08-20T05:44:46.552Z,22.34
2022-08-20T05:46:48.850Z,22.42
2022-08-20T05:48:50.978Z,22.34
2022-08-20T05:50:54.632Z,22.39
2022-08-20T05:52:56.708Z,22.37
2022-08-20T05:54:58.970Z,22.44
2022-08-20T05:57:01.291Z,22.46
2022-08-20T05:59:07.458Z,22.61
2022-08-20T06:01:09.531Z,22.64
2022-08-20T06:03:12.131Z,22.68
2022-08-20T06:05:14.476Z,22.73
2022-08-20T06:07:16.710Z,22.97
2022-08-20T06:09:30.625Z,23.31
2022-08-20T06:11:37.225Z,23.73
2022-08-20T06:13:39.624Z,24.18
2022-08-20T06:15:42.429Z,24.60
2022-08-20T06:17:44.514Z,24.93
2022-08-20T06:20:05.152Z,25.30
2022-08-20T06:22:19.893Z,25.63
2022-08-20T06:24:29.551Z,25.90
2022-08-20T06:26:31.595Z,26.07
2022-08-20T06:28:33.978Z,26.32
2022-08-20T06:30:36.433Z,26.51
2022-08-20T06:32:38.639Z,26.59
2022-08-20T06:34:50.185Z,26.70
2022-08-20T06:36:53.093Z,26.73
2022-08-20T06:38:55.239Z,26.71
2022-08-20T06:40:57.452Z,26.62
2022-08-20T06:42:59.924Z,26.71
2022-08-20T06:45:02.160Z,26.65
2022-08-20T06:47:05.235Z,26.76
2022-08-20T06:49:08.066Z,26.80
2022-08-20T06:51:10.116Z,26.83
2022-08-20T06:53:16.177Z,26.81
2022-08-20T06:55:18.842Z,26.80
2022-08-20T06:57:20.892Z,26.89
2022-08-20T06:59:23.211Z,26.90
2022-08-20T07:01:25.608Z,26.93
2022-08-20T07:03:27.597Z,26.99
2022-08-20T07:05:34.693Z,26.95
2022-08-20T07:07:37.655Z,26.86
2022-08-20T07:09:39.803Z,26.80
2022-08-20T07:11:42.010Z,26.70
2022-08-20T07:13:44.104Z,26.65
2022-08-20T07:15:46.345Z,26.62
2022-08-20T07:18:01.103Z,26.42
2022-08-20T07:20:13.791Z,26.22
2022-08-20T07:22:15.875Z,26.21
2022-08-20T07:24:18.197Z,26.20
2022-08-20T07:26:20.436Z,26.20
2022-08-20T07:28:25.936Z,26.20
2022-08-20T07:30:31.283Z,26.13
2022-08-20T07:32:33.860Z,25.82
2022-08-20T07:34:39.042Z,25.78
2022-08-20T07:36:47.122Z,25.67
2022-08-20T07:38:49.322Z,25.54
2022-08-20T07:41:02.003Z,25.48
2022-08-20T07:43:04.575Z,25.40
2022-08-20T07:45:13.496Z,25.28
2022-08-20T07:47:19.295Z,25.26
2022-08-20T07:49:21.763Z,25.27
2022-08-20T07:51:23.993Z,25.30
2022-08-20T07:53:29.344Z,25.32
2022-08-20T07:55:34.786Z,25.45
2022-08-20T07:57:38.153Z,25.52
2022-08-20T07:59:40.172Z,25.62
2022-08-20T08:01:42.453Z,25.62
2022-08-20T08:03:49.840Z,25.68
2022-08-20T08:05:52.423Z,25.80
2022-08-20T08:07:55.722Z,25.89
2022-08-20T08:09:58.241Z,25.94
2022-08-20T08:12:00.583Z,26.02
2022-08-20T08:14:05.182Z,26.15
2022-08-20T08:16:09.712Z,26.28
2022-08-20T08:18:19.534Z,26.34
2022-08-20T08:20:22.247Z,26.31
2022-08-20T08:22:25.103Z,26.22
2022-08-20T08:24:28.555Z,26.37
2022-08-20T08:26:31.188Z,26.38
2022-08-20T08:28:33.246Z,26.47
2022-08-20T08:30:35.396Z,26.48
2022-08-20T08:32:38.566Z,26.40
2022-08-20T08:34:40.712Z,26.24
2022-08-20T08:36:42.884Z,26.21
2022-08-20T08:38:46.152Z,26.17
2022-08-20T08:40:52.214Z,26.15
2022-08-20T08:43:04.803Z,26.21
2022-08-20T08:45:09.064Z,26.20
2022-08-20T08:47:40.223Z,26.20
2022-08-20T08:49:46.584Z,26.19
2022-08-20T08:51:55.883Z,25.93
2022-08-20T08:54:02.150Z,26.10
2022-08-20T08:56:15.382Z,26.04
2022-08-20T08:58:17.782Z,26.10
2022-08-20T09:00:21.685Z,26.07
2022-08-20T09:02:26.598Z,26.19
2022-08-20T09:04:40.402Z,26.18
2022-08-20T09:06:52.269Z,26.22
2022-08-20T09:09:06.684Z,26.14
2022-08-20T09:11:10.506Z,26.26
2022-08-20T09:13:12.917Z,26.16
2022-08-20T09:15:15.151Z,26.09
2022-08-20T09:17:20.466Z,26.02
2022-08-20T09:19:22.641Z,26.03
2022-08-20T09:21:24.735Z,26.10
2022-08-20T09:23:32.068Z,26.27
2022-08-20T09:25:44.544Z,26.44
2022-08-20T09:27:46.783Z,26.60
2022-08-20T09:29:50.718Z,26.73
2022-08-20T09:32:10.284Z,26.66
2022-08-20T09:34:12.995Z,26.57
2022-08-20T09:36:32.074Z,26.51
2022-08-20T09:38:34.962Z,26.43
2022-08-20T09:40:37.913Z,26.22
2022-08-20T09:42:41.805Z,26.02
2022-08-20T09:44:46.023Z,26.11
2022-08-20T09:46:48.134Z,26.24
2022-08-20T09:48:52.614Z,26.20
2022-08-20T09:50:57.973Z,26.16
2022-08-20T09:53:02.336Z,26.21
2022-08-20T09:55:27.906Z,26.47
2022-08-20T09:57:32.152Z,26.74
2022-08-20T09:59:36.203Z,26.69
2022-08-20T10:01:38.721Z,26.66
2022-08-20T10:03:45.963Z,26.65
2022-08-20T10:05:48.313Z,26.61
2022-08-20T10:07:50.717Z,26.58
2022-08-20T10:09:53.624Z,26.64
2022-08-20T10:11:55.722Z,26.69
2022-08-20T10:13:58.447Z,26.70
2022-08-20T10:16:00.561Z,26.73
2022-08-20T10:18:05.291Z,26.82
2022-08-20T10:20:11.123Z,26.94
2022-08-20T10:22:13.593Z,27.14
2022-08-20T10:24:15.804Z,27.19
2022-08-20T10:26:18.263Z,27.16
2022-08-20T10:28:20.364Z,26.91
2022-08-20T10:30:22.802Z,26.87
2022-08-20T10:32:25.225Z,26.82
2022-08-20T10:34:27.502Z,26.74
2022-08-20T10:36:29.823Z,26.64
2022-08-20T10:38:32.291Z,26.67
2022-08-20T10:40:34.415Z,26.58
2022-08-20T10:42:41.830Z,26.41
2022-08-20T10:44:45.014Z,26.23
2022-08-20T10:46:47.171Z,26.15
2022-08-20T10:48:49.405Z,26.04
2022-08-20T10:50:54.084Z,25.95
2022-08-20T10:52:56.302Z,25.87
2022-08-20T10:54:58.613Z,25.83
2022-08-20T10:57:04.649Z,25.87
2022-08-20T10:59:06.933Z,25.97
2022-08-20T11:01:09.562Z,26.08
2022-08-20T11:03:12.242Z,26.01
2022-08-20T11:05:14.521Z,25.74
2022-08-20T11:07:54.729Z,25.67
2022-08-20T11:09:54.473Z,25.56
2022-08-20T11:11:56.566Z,25.42
2022-08-20T11:13:58.804Z,25.49
2022-08-20T11:16:02.569Z,25.65
2022-08-20T11:18:06.002Z,25.65
2022-08-20T11:20:11.277Z,25.60
2022-08-20T11:22:13.763Z,25.48
2022-08-20T11:24:15.944Z,25.58
2022-08-20T11:26:23.293Z,25.60
2022-08-20T11:28:31.523Z,25.57
2022-08-20T11:30:36.792Z,25.42
2022-08-20T11:32:39.122Z,25.40
2022-08-20T11:34:43.063Z,25.41
2022-08-20T11:36:46.772Z,25.50
2022-08-20T11:38:49.027Z,25.54
2022-08-20T11:40:51.502Z,25.44
2022-08-20T11:43:13.635Z,25.39
2022-08-20T11:45:16.490Z,25.41
2022-08-20T11:47:30.450Z,25.47
2022-08-20T11:49:35.354Z,25.49
2022-08-20T11:51:48.949Z,25.52
2022-08-20T11:53:52.813Z,25.58
2022-08-20T11:55:55.442Z,25.63
2022-08-20T11:57:59.860Z,25.74
2022-08-20T12:00:09.032Z,25.81
2022-08-20T12:02:12.472Z,25.87
2022-08-20T12:04:14.855Z,26.00
2022-08-20T12:06:17.403Z,26.11
2022-08-20T12:08:27.568Z,26.17
2022-08-20T12:10:35.120Z,26.22
2022-08-20T12:13:05.902Z,26.19
2022-08-20T12:15:22.470Z,26.13
2022-08-20T12:17:30.326Z,26.13
2022-08-20T12:19:41.522Z,26.27
2022-08-20T12:21:46.953Z,26.21
2022-08-20T12:23:49.781Z,26.26
2022-08-20T12:25:53.825Z,26.22
2022-08-20T12:27:56.027Z,26.26
2022-08-20T12:30:08.960Z,26.45
2022-08-20T12:32:12.924Z,26.60
2022-08-20T12:40:24.471Z,26.96
2022-08-20T12:45:25.130Z,27.11
2022-08-20T12:50:20.741Z,26.82
2022-08-20T12:52:48.643Z,27.13
2022-08-20T12:54:53.475Z,27.25
2022-08-20T12:56:55.654Z,27.53
2022-08-20T13:14:49.972Z,28.84
2022-08-20T13:17:38.866Z,28.48
2022-08-20T13:19:43.243Z,28.37
2022-08-20T13:21:45.835Z,28.32
2022-08-20T13:23:57.554Z,28.17
2022-08-20T13:25:59.702Z,28.03
2022-08-20T13:28:04.576Z,28.31
2022-08-20T13:30:09.322Z,28.39
2022-08-20T13:32:11.814Z,28.37
2022-08-20T13:34:14.987Z,28.51
2022-08-20T13:36:17.475Z,28.70
2022-08-20T13:38:30.404Z,28.87
2022-08-20T13:40:35.023Z,28.94
2022-08-20T13:42:40.770Z,29.23
2022-08-20T13:45:00.502Z,29.43
2022-08-20T13:47:22.304Z,29.48
2022-08-20T13:49:40.249Z,29.27
2022-08-20T13:52:19.743Z,29.24
2022-08-20T13:54:29.921Z,29.23
2022-08-20T13:56:56.373Z,29.15
2022-08-20T13:59:08.504Z,28.80
2022-08-20T14:01:23.911Z,28.59
2022-08-20T14:03:26.647Z,28.58
2022-08-20T14:05:37.058Z,28.56
2022-08-20T14:07:39.933Z,28.56
2022-08-20T14:13:15.882Z,28.75
2022-08-20T14:18:09.061Z,28.67
2022-08-20T14:20:22.795Z,28.75
2022-08-20T14:22:36.521Z,28.43
2022-08-20T14:24:46.130Z,28.49
2022-08-20T14:26:50.946Z,28.51
2022-08-20T14:28:53.303Z,28.63
2022-08-20T14:30:55.485Z,28.70
2022-08-20T14:32:58.629Z,28.70
2022-08-20T14:35:00.833Z,28.43
2022-08-20T14:37:18.454Z,28.36
2022-08-20T14:39:23.317Z,28.38
2022-08-20T14:41:25.538Z,28.37
2022-08-20T14:43:30.607Z,28.40
2022-08-20T14:45:36.136Z,28.41
2022-08-20T14:47:51.812Z,28.44
2022-08-20T14:49:59.803Z,28.41
2022-08-20T14:52:02.482Z,28.54
2022-08-20T14:54:04.984Z,28.71
2022-08-20T14:56:07.364Z,28.52
2022-08-20T14:58:12.047Z,28.55
2022-08-20T15:00:19.174Z,28.62
2022-08-20T15:02:21.313Z,28.48
2022-08-20T15:04:23.843Z,28.46
2022-08-20T15:06:27.859Z,28.48
2022-08-20T15:08:30.084Z,28.45
2022-08-20T15:10:33.641Z,28.67
2022-08-20T15:12:36.471Z,28.78
2022-08-20T15:14:39.327Z,28.80
2022-08-20T15:16:41.935Z,28.88
2022-08-20T15:18:44.314Z,28.80
2022-08-20T15:20:46.788Z,28.81
2022-08-20T15:22:50.586Z,28.95
2022-08-20T15:24:57.631Z,28.88
2022-08-20T15:27:17.125Z,28.79
2022-08-20T15:29:23.650Z,28.83
2022-08-20T15:31:26.032Z,28.89
2022-08-20T15:33:28.243Z,28.97
2022-08-20T15:35:30.842Z,29.03
2022-08-20T15:37:33.084Z,29.06
2022-08-20T15:39:35.389Z,28.94
2022-08-20T15:41:37.922Z,29.06
2022-08-20T15:43:40.094Z,29.01
2022-08-20T15:45:42.275Z,29.06
2022-08-20T15:47:44.588Z,29.07
2022-08-20T15:49:49.932Z,28.98
2022-08-20T15:51:52.444Z,28.92
2022-08-20T15:54:11.384Z,28.94
2022-08-20T15:56:36.136Z,28.78
2022-08-20T15:59:19.905Z,28.47
2022-08-20T16:01:53.183Z,28.08
2022-08-20T16:04:30.773Z,27.74
2022-08-20T16:06:33.808Z,27.45
2022-08-20T16:09:26.918Z,27.27
2022-08-20T16:11:49.643Z,26.87
2022-08-20T16:13:57.982Z,26.60
2022-08-20T16:16:04.993Z,26.34
2022-08-20T16:18:17.182Z,25.98
2022-08-20T16:20:36.182Z,25.62
2022-08-20T16:22:44.373Z,25.40
2022-08-20T16:24:47.382Z,25.12
2022-08-20T16:27:26.756Z,24.82
2022-08-20T16:29:56.882Z,24.55
2022-08-20T16:32:21.550Z,24.27
2022-08-20T16:34:42.154Z,24.05
2022-08-20T16:37:05.278Z,23.80
2022-08-20T16:39:16.617Z,23.40
2022-08-20T16:41:37.153Z,23.24
2022-08-20T16:44:08.793Z,23.06
2022-08-20T16:46:25.226Z,22.87
2022-08-20T16:48:38.012Z,22.67
2022-08-20T16:51:02.703Z,22.56
2022-08-20T16:53:05.778Z,22.46
2022-08-20T16:55:08.647Z,22.19
2022-08-20T16:57:15.202Z,22.12
2022-08-20T16:59:26.741Z,22.05
2022-08-20T17:01:30.678Z,22.00
2022-08-20T17:03:39.537Z,21.89
2022-08-20T17:05:45.048Z,21.79
2022-08-20T17:07:52.895Z,21.71
2022-08-20T17:10:29.072Z,21.66
2022-08-20T17:12:40.735Z,21.53
2022-08-20T17:14:55.899Z,21.47
2022-08-20T17:17:02.147Z,21.42
2022-08-20T17:19:29.504Z,21.42
2022-08-20T17:21:35.042Z,21.34
2022-08-20T17:23:55.177Z,21.41
2022-08-20T17:26:03.812Z,21.38
2022-08-20T17:28:21.566Z,21.35
2022-08-20T17:30:37.302Z,21.30
2022-08-20T17:33:30.789Z,21.30
2022-08-20T17:36:15.772Z,21.21
2022-08-20T17:38:41.302Z,21.21
2022-08-20T17:40:43.602Z,21.14
2022-08-20T17:43:00.055Z,21.18
2022-08-20T17:45:22.832Z,21.12
2022-08-20T17:47:33.412Z,21.20
2022-08-20T17:50:01.929Z,21.20
2022-08-20T17:52:17.132Z,21.20
2022-08-20T17:54:30.974Z,21.21
2022-08-20T17:56:40.487Z,21.17
2022-08-20T17:59:03.226Z,21.22
2022-08-20T18:01:10.018Z,21.28
2022-08-20T18:03:22.840Z,21.29
2022-08-20T18:05:28.041Z,21.30
2022-08-20T18:07:58.680Z,21.29
2022-08-20T18:10:12.491Z,21.35
2022-08-20T18:12:34.241Z,21.39
2022-08-20T18:14:47.732Z,21.41
2022-08-20T18:17:13.732Z,21.40
2022-08-20T18:19:50.822Z,21.43
2022-08-20T18:22:13.774Z,21.41
2022-08-20T18:24:24.752Z,21.32
2022-08-20T18:26:49.434Z,21.35
2022-08-20T18:29:04.023Z,21.34
2022-08-20T18:31:08.211Z,21.24
2022-08-20T18:33:10.602Z,21.24
2022-08-20T18:35:38.404Z,21.24
2022-08-20T18:37:48.811Z,21.20
2022-08-20T18:40:13.550Z,21.17
2022-08-20T18:42:37.061Z,21.13
2022-08-20T18:44:47.192Z,21.09
2022-08-20T18:47:00.480Z,21.05
2022-08-20T18:49:07.520Z,21.08
2022-08-20T18:51:11.982Z,20.92
2022-08-20T18:53:33.934Z,20.88
2022-08-20T18:55:47.057Z,20.94
2022-08-20T18:57:58.865Z,20.96
2022-08-20T19:00:10.473Z,20.99
2022-08-20T19:02:35.641Z,21.04
2022-08-20T19:04:38.822Z,20.98
2022-08-20T19:06:57.997Z,20.94
2022-08-20T19:09:10.043Z,20.99
2022-08-20T19:11:26.263Z,21.14
2022-08-20T19:14:02.385Z,21.21
2022-08-20T19:16:21.921Z,21.25
2022-08-20T19:18:36.181Z,21.25
2022-08-20T19:20:49.192Z,21.32
2022-08-20T19:22:54.475Z,21.32
2022-08-20T19:24:56.978Z,21.38
2022-08-20T19:27:11.541Z,21.42
2022-08-20T19:29:21.773Z,21.39
2022-08-20T19:31:31.791Z,21.35
2022-08-20T19:33:43.941Z,21.37
2022-08-20T19:35:46.943Z,21.33
2022-08-20T19:37:51.698Z,21.37
2022-08-20T19:39:55.370Z,21.41
2022-08-20T19:42:05.832Z,21.34
2022-08-20T19:44:08.352Z,21.32
2022-08-20T19:46:13.262Z,21.31
2022-08-20T19:48:43.052Z,21.28
2022-08-20T19:50:54.847Z,21.25
2022-08-20T19:53:28.820Z,21.25
2022-08-20T19:55:38.772Z,21.21
2022-08-20T19:57:53.750Z,21.11
2022-08-20T20:00:08.684Z,21.07
2022-08-20T20:02:21.237Z,21.08
2022-08-20T20:04:28.044Z,20.99
2022-08-20T20:06:40.778Z,21.06
2022-08-20T20:09:19.882Z,21.01
2022-08-20T20:11:31.902Z,21.02
2022-08-20T20:13:37.809Z,21.07
2022-08-20T20:15:42.825Z,20.91
2022-08-20T20:17:45.306Z,21.03
2022-08-20T20:20:01.343Z,20.95
2022-08-20T20:22:22.713Z,20.99
2022-08-20T20:24:31.244Z,20.94
2022-08-20T20:26:38.252Z,20.88
2022-08-20T20:28:51.181Z,20.95
2022-08-20T20:30:54.362Z,20.91
2022-08-20T20:33:00.957Z,20.85
2022-08-20T20:35:05.866Z,20.80
2022-08-20T20:37:49.677Z,20.90
2022-08-20T20:40:01.475Z,20.90
2022-08-20T20:42:08.206Z,20.98
2022-08-20T20:44:36.916Z,20.99
2022-08-20T20:46:40.186Z,20.88
2022-08-20T20:48:51.885Z,20.90
2022-08-20T20:50:56.547Z,20.94
2022-08-20T20:52:59.540Z,20.89
2022-08-20T20:55:31.585Z,20.82
2022-08-20T20:57:38.556Z,20.75
2022-08-20T20:59:41.823Z,20.90
2022-08-20T21:01:50.062Z,20.89
2022-08-20T21:03:53.356Z,21.02
2022-08-20T21:05:55.762Z,21.00
2022-08-20T21:08:02.693Z,21.03
2022-08-20T21:10:05.533Z,21.03
2022-08-20T21:12:11.034Z,21.02
2022-08-20T21:14:13.771Z,21.03
2022-08-20T21:16:17.194Z,21.08
2022-08-20T21:18:24.100Z,21.11
2022-08-20T21:20:29.434Z,21.14
2022-08-20T21:22:32.583Z,21.11
2022-08-20T21:24:35.524Z,21.06
2022-08-20T21:26:39.654Z,21.15
2022-08-20T21:28:41.840Z,21.09
2022-08-20T21:30:44.175Z,21.13
2022-08-20T21:32:46.915Z,21.13
2022-08-20T21:34:51.086Z,21.07
2022-08-20T21:36:54.306Z,21.10
2022-08-20T21:38:58.685Z,21.14
2022-08-20T21:41:01.366Z,21.15
2022-08-20T21:43:07.278Z,21.23
2022-08-20T21:45:14.927Z,21.25
2022-08-20T21:47:21.423Z,21.13
2022-08-20T21:49:28.543Z,21.24
2022-08-20T21:51:31.014Z,21.23
2022-08-20T21:53:35.573Z,21.13
2022-08-20T21:55:41.830Z,21.12
2022-08-20T22:00:19.482Z,21.17
2022-08-20T22:02:25.097Z,21.11
2022-08-20T22:04:35.194Z,21.03
2022-08-20T22:06:39.094Z,20.99
2022-08-20T22:08:41.996Z,21.01
2022-08-20T22:11:05.010Z,20.97
2022-08-20T22:13:07.757Z,20.86
2022-08-20T22:15:11.079Z,20.78
2022-08-20T22:17:15.163Z,20.96
2022-08-20T22:21:58.267Z,20.81
2022-08-20T22:24:06.417Z,20.99
2022-08-20T22:26:21.577Z,20.99
2022-08-20T22:42:20.633Z,20.57
2022-08-20T22:44:27.863Z,20.58
2022-08-20T22:59:03.718Z,20.53
2022-08-20T23:07:41.821Z,20.69
2022-08-20T23:09:50.133Z,20.64
2022-08-20T23:21:34.213Z,20.85
2022-08-20T23:23:36.784Z,20.77
2022-08-20T23:48:42.381Z,20.28
